Dutch Fork, South Carolina
Current Conditions -  °F | °C
As of 2:56 AM on Friday 28 Nov 2014 (Local Time) from KCAE Reporting Station
Clear Clear  
Wind Chill: 37°   Ceiling: Unl
Heat Index: 37°   Visibility: 10mi
Dew Point: 25°   Wind: 3mph
Humidity: 62%   Direction: 360°N
Pressure: 30.33"   Gusts: NA
Location:  34.0549°N, 81.113°W
Report Text: KCAE 280756Z 36003KT 10SM CLR 03/M04 A3033 RMK AO2 SLP269 T00281039
Loading
Personal Weather Stations






























Interactive Weather Map New forecast layout! Learn more

10-Day Weather Forecast

Advertisements
Track Severe Weather on mobile